Portada
METAR-TAF:

METAR-TAF

Aeroports :

Plymouth Municipal Airport

Plymouth, Massachusetts, Estats Units d'Amèrica

latitud: 41-54-31N, longitud: 070-43-41W, altitud: 45 m

Observació

L'informe es va fer fa 11 minuts, a les 00:52 UTC
Vent 4 kt del Est/Nord-Est
Temperatura 20°C
Humitat 83%
Pressió 1021 hPa
Visibilitat: 16.1 km
Cel clar

METAR: KPYM 080052Z AUTO 07004KT 10SM CLR 20/17 A3016 RMK AO2 SLP213 T02000167

Hora: 21:03 (01:03 UTC)


TAF: manca

Observacions i pronòstics meteorològics de més de 4000 aeroports (METAR i TAF).

Les estacions disponibles són els punts grocs i vermells al mapa.

Posi el ratolí al punt desitjat per veure el nom de l'estació.

Feu clic per veure les observacions i els pronòstics meteorològics.

Per canviar el mapa: feu clic els botons verds amb una creu de color negre per apropar; al botó verd amb un guió per allunyar la imatge; o en les fletxes verdes per a mapes adjacents.


METAR-TAF: